Headquarters, Valles Caldera, New Mexico Weather observations

Data are for 10 minute period ending at time listed.
 Day   Time   Solar   Ave.   Ave.  Ave.  Vector  Max.   Baro.   Total    
  of    of     Rad.   Air    Rel.  Wind   Wind   Wind  Press.  Precip.   
Year   Day            Temp.  Hum.  Speed  Dir.   Gust                    
2016   (MST)  Kw/m2    F      %     mph   deg.    mph    mb.     in.     
-------------------------------------------------------------------------
 124    4:20   0.00   26.3    92    1.0   284     2.4   741.4    0.00 
 124    4:30   0.00   25.4    92    2.5   322     4.2   741.5    0.00 
 124    4:40   0.00   25.5    93    1.1   273     4.2   741.5    0.00 
 124    4:50   0.00   24.8    93    3.7   257     4.8   741.5    0.00 
 124    5:00   0.00   25.5    94    3.0   290     4.8   741.5    0.00 
 124    5:10   0.00   25.7    94    3.0   272     4.2   741.5    0.00 
 124    5:20   0.01   25.9    93    3.4   282     4.2   741.6    0.00 
 124    5:30   0.01   25.6    92    2.6   273     4.8   741.7    0.00 
 124    5:40   0.05   26.4    91    0.8   101     3.0   741.8    0.00 
 124    5:50   0.08   28.4    89    0.9   352     3.0   741.9    0.00 
 124    6:00   0.11   30.4    82    1.1    82     2.4   741.9    0.00 
 124    6:10   0.15   31.8    80    0.6   159     1.8   742.0    0.00 
 124    6:20   0.17   33.9    78    2.5   197     4.8   741.9    0.00 
 124    6:30   0.20   35.3    77    2.6   195     4.8   741.9    0.00 
 124    6:40   0.23   32.8    80    4.4    82     7.2   742.0    0.00 
 124    6:50   0.26   32.7    82    2.1    87     3.6   742.1    0.00 
 124    7:00   0.28   34.3    80    1.9   103     3.6   742.1    0.00 
 124    7:10   0.31   36.6    76    2.3   102     4.8   742.0    0.00 
 124    7:20   0.34   37.7    73    3.3    87     5.4   741.9    0.00 
 124    7:30   0.37   37.0    78    4.8    86     6.6   742.0    0.00 
 124    7:40   0.40   38.4    76    4.1    71     6.6   742.0    0.00 
 124    7:50   0.43   41.1    69    3.4    66     6.6   742.0    0.00 
 124    8:00   0.46   43.0    62    5.4    92     7.8   742.1    0.00 
 124    8:10   0.49   45.2    53    4.6    78     7.8   742.2    0.00 
 124    8:20   0.52   46.3    49    4.4   133     7.2   742.3    0.00 
 124    8:30   0.54   47.2    47    5.0    98     8.4   742.3    0.00 
 124    8:40   0.57   48.2    45    5.2    92     9.0   742.4    0.00 
 124    8:50   0.60   48.5    44    5.4    96    11.3   742.4    0.00 
 124    9:00   0.64   49.4    42    5.3    91    10.2   742.3    0.00 
 124    9:10   0.69   49.9    39    8.2    80    12.5   742.4    0.00 
 124    9:20   0.74   50.7    40    8.7    62    14.9   742.5    0.00 
 124    9:30   0.53   50.7    35    7.5    54    11.9   742.6    0.00 
 124    9:40   0.18   47.7    38    3.7   106     7.2   742.6    0.00 
 124    9:50   0.73   49.1    37    5.5    20    10.2   742.6    0.00 
 124   10:00   0.97   52.5    32    5.9    50    13.1   742.7    0.00 
 124   10:10   0.60   52.4    31    4.9    72     9.0   742.8    0.00 
 124   10:20   0.24   50.1    35    4.6    83    10.8   742.9    0.00 
 124   10:30   0.22   49.1    40    7.6    55    13.1   743.0    0.00 
 124   10:40   0.21   48.3    46    7.3    79    10.8   743.1    0.00 
 124   10:50   0.24   48.2    48    6.4    62    10.8   743.0    0.00 
 124   11:00   0.19   48.1    48    5.8    64    10.2   743.0    0.00 
 124   11:10   0.30   47.7    49    4.3   100     8.4   743.0    0.00 
 124   11:20   0.87   50.9    45    4.2   194     9.0   742.9    0.00 
 124   11:30   0.99   53.1    40    5.7   172     9.0   742.9    0.00 
 124   11:40   0.91   53.2    37    5.4   141     9.6   742.9    0.00 
 124   11:50   0.83   53.5    38    6.0   207    13.7   742.9    0.00 
 124   12:00   0.44   54.4    36    5.9   257    11.3   742.9    0.00 
 124   12:10   0.65   52.5    38    5.1   261    11.3   743.0    0.00 
 124   12:20   1.09   55.5    34    3.7   277     7.2   742.9    0.00 
 124   12:30   0.32   55.7    35    7.0   233    11.9   742.9    0.00 
 124   12:40   0.25   52.7    38    2.9   197     6.0   743.0    0.00 
 124   12:50   0.41   52.7    38    3.4   181     7.2   742.9    0.00 
 124   13:00   0.33   52.8    34    4.1   200     9.0   742.9    0.00 
 124   13:10   0.67   54.2    35    6.3   186    11.3   742.9    0.00 
 124   13:20   0.86   55.9    38    8.6   202    16.7   742.9    0.00 
 124   13:30   0.20   53.9    38    6.9   216    11.9   743.0    0.00 
 124   13:40   0.15   52.2    40    6.7   212    13.1   743.1    0.00 
 124   13:50   0.14   51.4    42    6.0   233     9.6   743.1    0.00 
 124   14:00   0.51   52.0    43    5.6   185     8.4   743.1    0.00 
 124   14:10   0.46   53.3    42    7.0   182    14.9   743.1    0.00 
 124   14:20   0.22   53.0    40    7.0   229    11.9   743.2    0.00 
 124   14:30   0.18   51.0    48    5.3   175     8.4   743.3    0.00 
 124   14:40   0.63   50.5    49    6.1   158     9.6   743.2    0.00 
 124   14:50   0.28   51.4    44    6.6   187    10.2   743.2    0.00 
 124   15:00   0.20   51.6    44    5.7   215    10.8   743.2    0.00 
 124   15:10   0.17   51.5    41    4.1   203     7.2   743.2    0.00 
 124   15:20   0.43   52.5    39    4.1   216     7.2   743.3    0.00 
 124   15:30   0.62   53.5    34    5.1   121    11.9   743.4    0.00 
 124   15:40   0.58   52.8    35    6.8    89    11.3   743.4    0.00 
 124   15:50   0.57   53.2    35    5.9   129    13.1   743.4    0.00 
 124   16:00   0.49   54.2    31    3.8   333     6.6   743.5    0.00 
 124   16:10   0.36   54.0    31    3.5   350     5.4   743.5    0.00 
 124   16:20   0.31   54.1    32    3.0    59     7.2   743.5    0.00 
 124   16:30   0.20   53.5    32    4.3   200     7.8   743.5    0.00 
 124   16:40   0.37   55.3    30    3.2   232     6.0   743.5    0.00 
 124   16:50   0.18   56.2    29    2.7   220     4.8   743.5    0.00 
 124   17:00   0.13   53.8    31    3.0   301     5.4   743.5    0.00 
 124   17:10   0.34   54.4    31    2.4   286     4.2   743.5    0.00 
 124   17:20   0.25   55.9    28    1.8    21     3.6   743.5    0.00 
 124   17:30   0.14   55.0    30    1.2   148     3.6   743.6    0.00 
 124   17:40   0.14   52.7    36    2.5   187     3.0   743.7    0.00 
 124   17:50   0.08   52.3    41    3.1   279     4.2   743.6    0.00 
 124   18:00   0.03   49.5    49    2.8   275     4.2   743.5    0.00 
 124   18:10   0.02   46.7    57    2.6   276     4.2   743.5    0.00 
 124   18:20   0.02   45.0    56    4.3   272     6.0   743.6    0.00 
 124   18:30   0.01   43.1    62    3.9   268     4.8   743.6    0.00 
 124   18:40   0.01   42.1    64    3.8   260     5.4   743.7    0.00 
 124   18:50   0.01   41.0    66    3.7   262     4.8   743.7    0.00 
 124   19:00   0.00   39.5    70    3.4   266     4.2   743.7    0.00 
 124   19:10   0.00   39.3    70    3.7   262     4.8   743.8    0.00 
 124   19:20   0.00   39.2    68    4.1   277     4.8   743.9    0.00 
 124   19:30   0.00   37.9    70    4.0   282     5.4   744.0    0.00 
 124   19:40   0.00   37.5    72    3.1   279     4.8   744.2    0.00 
 124   19:50   0.00   37.2    73    4.8   277     6.0   744.3    0.00 
 124   20:00   0.00   36.5    76    3.4   270     4.8   744.4    0.00 
 124   20:10   0.00   37.0    74    4.3   264     5.4   744.6    0.00 
 124   20:20   0.00   36.8    73    4.2   276     5.4   744.6    0.00 
 124   20:30   0.00   36.1    72    3.3   245     5.4   744.9    0.00 
 124   20:40   0.00   35.3    74    4.9   298     6.0   745.0    0.00 
 124   20:50   0.00   34.8    74    3.4   270     5.4   745.1    0.00 
 124   21:00   0.00   34.9    75    3.8   258     4.8   745.1    0.00 
 124   21:10   0.00   35.8    73    3.7   271     5.4   745.2    0.00 
 124   21:20   0.00   35.8    73    3.7   275     5.4   745.2    0.00 
 124   21:30   0.00   35.8    75    3.5   271     5.4   745.3    0.00 
 124   21:40   0.00   35.3    76    3.1   266     5.4   745.4    0.00 
 124   21:50   0.00   34.5    79    3.4   270     4.8   745.4    0.00 
 124   22:00   0.00   35.0    78    3.5   265     4.8   745.5    0.00 
 124   22:10   0.00   34.9    78    4.1   265     6.0   745.6    0.00 
 124   22:20   0.00   34.0    80    3.4   272     7.2   745.6    0.00 
 124   22:30   0.00   33.9    81    4.2   260     6.6   745.7    0.00 
 124   22:40   0.00   33.6    81    4.0   257     6.0   745.7    0.00 
 124   22:50   0.00   34.3    80    4.2   255     6.6   745.7    0.00 
 124   23:00   0.00   34.8    79    3.7   275     4.8   745.7    0.00 
 124   23:10   0.00   34.4    80    2.8   269     4.8   745.8    0.00 
 124   23:20   0.00   34.2    79    4.2   262     6.0   745.9    0.00 
 124   23:30   0.00   34.4    79    2.5   282     4.2   745.9    0.00 
 124   23:40   0.00   34.4    78    2.2   281     3.6   745.9    0.00 
 124   23:50   0.00   32.9    79    1.4   272     3.0   745.9    0.00 
 125    0:00   0.00   32.1    82    0.2   295     2.4   746.0    0.00 
 125    0:10   0.00   32.6    83    1.0   323     2.4   746.1    0.00 
 125    0:20   0.00   32.9    82    1.5   285     3.6   746.1    0.00 
 125    0:30   0.00   32.5    82    2.8   264     4.2   746.1    0.00 
 125    0:40   0.00   32.0    83    2.4   292     3.6   746.0    0.00 
 125    0:50   0.00   32.1    83    3.0   277     4.2   746.1    0.00 
 125    1:00   0.00   31.9    83    3.7   276     4.8   746.1    0.00 
 125    1:10   0.00   31.7    83    3.3   277     4.8   746.1    0.00 
 125    1:20   0.00   32.0    84    3.2   276     4.8   746.1    0.00 
 125    1:30   0.00   31.9    81    1.4   323     3.0   746.1    0.00 
 125    1:40   0.00   30.7    85    1.9   273     3.6   746.1    0.00 
 125    1:50   0.00   31.0    83    2.6   263     5.4   746.1    0.00 
 125    2:00   0.00   30.3    84    3.3   275     5.4   746.1    0.00 
 125    2:10   0.00   30.2    84    2.7   274     4.8   746.2    0.00 
 125    2:20   0.00   31.2    81    2.6   279     4.8   746.1    0.00 
 125    2:30   0.00   30.0    82    1.2    64     3.0   746.1    0.00 
 125    2:40   0.00   28.0    87    0.7   254     1.8   746.1    0.00 
 125    2:50   0.00   28.2    91    2.2   259     3.6   746.1    0.00 
 125    3:00   0.00   29.1    90    2.4   296     3.6   746.1    0.00 
 125    3:10   0.00   28.8    85    0.7    70     2.4   746.1    0.00 
 125    3:20   0.00   29.0    89    2.1   283     3.6   746.1    0.00 
 125    3:30   0.00   29.2    88    2.6   288     4.2   746.0    0.00 
 125    3:40   0.00   29.5    88    2.7   272     3.0   746.0    0.00 
 125    3:50   0.00   29.6    87    3.1   267     4.2   746.0    0.00 
 125    4:00   0.00   29.6    87    3.3   290     4.8   746.0    0.00 
 125    4:10   0.00   29.6    86    2.1   306     3.6   746.0    0.00 

Return to Headquarters, Valles Caldera graphs page.


Western Regional Climate Center,wrcc@dri.edu